Time;durP1;ratioP1;P1;durP2;ratioP2;P2;SDS_P1;SDS_P2;PMS_P1;PMS_P2;Temp;Humidity;BMP_temperature;BMP_pressure;BME280_temperature;BME280_humidity;BME280_pressure;Samples;Min_cycle;Max_cycle;Signal;HPM_P1;HPM_P2
2021/12/22 00:00:20;;;;;;;38.47;23.73;;;;;;;15.57;37.61;93873.88;5030056;28;20029;-88
2021/12/22 00:02:46;;;;;;;41.50;23.90;;;;;;;15.60;37.50;93870.91;5028041;28;20034;-88
2021/12/22 00:05:17;;;;;;;35.05;22.27;;;;;;;15.56;37.46;93870.38;5026561;28;20130;-89
2021/12/22 00:07:42;;;;;;;33.97;22.48;;;;;;;15.52;37.51;93880.72;5028357;28;20048;-94
2021/12/22 00:10:08;;;;;;;34.03;21.63;;;;;;;15.53;37.60;93868.59;5027056;28;20045;-88
2021/12/22 00:12:33;;;;;;;39.70;22.17;;;;;;;15.54;37.32;93877.53;5027614;28;20153;-91
2021/12/22 00:14:59;;;;;;;34.35;21.13;;;;;;;15.50;37.68;93866.06;5029082;28;20245;-89
2021/12/22 00:17:24;;;;;;;34.97;21.48;;;;;;;15.53;37.54;93867.84;5022936;28;20041;-92
2021/12/22 00:19:51;;;;;;;37.17;21.27;;;;;;;15.49;37.66;93865.34;5031558;28;20047;-91
2021/12/22 00:22:16;;;;;;;31.35;19.35;;;;;;;15.50;37.65;93868.81;5029916;28;20032;-92
2021/12/22 00:24:42;;;;;;;27.90;18.40;;;;;;;15.57;37.41;93868.41;5031117;28;20412;-89
2021/12/22 00:27:10;;;;;;;30.58;20.55;;;;;;;15.51;37.80;93876.50;5026820;28;20497;-89
2021/12/22 00:29:35;;;;;;;31.83;20.83;;;;;;;15.49;37.69;93868.06;5027150;28;20061;-89
2021/12/22 00:32:10;;;;;;;32.97;20.38;;;;;;;15.51;37.73;93871.03;5027683;28;20435;-88
2021/12/22 00:34:45;;;;;;;33.17;21.55;;;;;;;15.51;37.67;93875.75;5032290;28;20048;-93
2021/12/22 00:37:10;;;;;;;29.52;18.17;;;;;;;15.52;37.34;93877.25;5046853;28;20051;-89
2021/12/22 00:39:35;;;;;;;29.85;18.40;;;;;;;15.49;37.79;93883.66;5030566;28;20037;-88
2021/12/22 00:42:01;;;;;;;31.67;19.67;;;;;;;15.48;37.87;93887.59;5010628;28;20515;-92
2021/12/22 00:44:26;;;;;;;31.88;20.00;;;;;;;15.49;37.60;93884.41;5025763;28;20274;-89
2021/12/22 00:46:52;;;;;;;32.97;20.60;;;;;;;15.51;37.67;93881.94;5011525;28;20052;-88
2021/12/22 00:49:17;;;;;;;28.25;18.98;;;;;;;15.45;37.69;93883.84;5026704;28;20042;-88
2021/12/22 00:51:43;;;;;;;28.33;19.27;;;;;;;15.52;37.60;93886.16;5027631;28;20049;-94
2021/12/22 00:54:08;;;;;;;26.02;18.80;;;;;;;15.48;37.69;93893.81;5043232;28;20381;-88
2021/12/22 00:56:37;;;;;;;26.23;17.70;;;;;;;15.49;37.35;93898.03;5047399;28;20037;-88
2021/12/22 00:59:02;;;;;;;31.05;18.60;;;;;;;15.46;37.68;93890.06;5047089;28;20040;-88
2021/12/22 01:01:28;;;;;;;24.13;18.35;;;;;;;15.49;37.68;93884.41;5030283;28;20056;-93
2021/12/22 01:03:53;;;;;;;27.60;17.90;;;;;;;15.43;37.78;93895.22;5030205;28;20438;-88
2021/12/22 01:06:19;;;;;;;27.65;17.83;;;;;;;15.42;37.72;93901.91;5009351;28;20040;-88
2021/12/22 01:08:44;;;;;;;27.40;18.88;;;;;;;15.44;37.78;93898.72;5027583;28;20038;-90
2021/12/22 01:11:10;;;;;;;23.65;16.65;;;;;;;15.47;37.57;93897.00;5026115;28;20033;-89
2021/12/22 01:13:35;;;;;;;26.55;17.98;;;;;;;15.53;37.57;93903.25;5026836;28;20046;-88
2021/12/22 01:16:01;;;;;;;25.17;17.52;;;;;;;15.46;37.66;93898.22;5027699;28;20049;-88
2021/12/22 01:18:31;;;;;;;24.15;17.35;;;;;;;15.41;37.69;93891.50;5026789;28;20048;-89
2021/12/22 01:21:16;;;;;;;25.13;17.47;;;;;;;15.43;37.82;93911.56;5030432;28;20392;-90
2021/12/22 01:24:00;;;;;;;26.63;17.13;;;;;;;15.48;37.56;93898.50;5016344;28;20036;-88
2021/12/22 01:26:30;;;;;;;26.98;16.73;;;;;;;15.48;37.45;93907.44;5026116;28;20396;-88
2021/12/22 01:28:55;;;;;;;27.75;16.67;;;;;;;15.46;37.69;93906.41;5043367;28;20045;-93
2021/12/22 01:31:21;;;;;;;22.48;15.00;;;;;;;15.42;38.17;93901.91;5024999;28;21544;-88
2021/12/22 01:33:46;;;;;;;26.58;16.67;;;;;;;15.46;37.70;93909.13;5027023;28;20041;-92
2021/12/22 01:36:11;;;;;;;29.08;15.85;;;;;;;15.47;37.68;93910.63;5026252;28;20041;-91
2021/12/22 01:38:37;;;;;;;20.85;13.77;;;;;;;15.43;37.77;93913.56;4993737;28;20038;-95
2021/12/22 01:41:03;;;;;;;26.50;16.50;;;;;;;15.45;37.68;93908.38;5031781;28;20048;-88
2021/12/22 01:43:28;;;;;;;25.38;15.45;;;;;;;15.46;37.57;93912.59;5030167;28;20037;-88
2021/12/22 01:51:42;;;;;;;25.40;16.00;;;;;;;15.47;37.70;93911.38;5028080;28;20080;-88
2021/12/22 01:54:11;;;;;;;21.52;16.40;;;;;;;15.46;37.76;93907.16;5021825;28;20045;-89
2021/12/22 01:56:36;;;;;;;22.58;13.40;;;;;;;15.38;37.86;93901.38;5006895;28;20042;-90
2021/12/22 01:59:04;;;;;;;22.10;14.90;;;;;;;15.41;37.56;93910.56;5006335;28;20037;-89
2021/12/22 02:01:31;;;;;;;23.38;15.13;;;;;;;15.42;37.72;93906.59;4993324;28;20045;-93
2021/12/22 02:03:56;;;;;;;20.38;14.23;;;;;;;15.41;37.91;93910.56;5028995;28;20052;-91
2021/12/22 02:06:22;;;;;;;25.40;15.45;;;;;;;15.40;37.90;93914.50;5001264;28;20528;-92
2021/12/22 02:08:47;;;;;;;23.02;15.32;;;;;;;15.40;37.77;93915.25;5030279;28;20432;-94
2021/12/22 02:11:14;;;;;;;24.65;15.30;;;;;;;15.40;37.78;93914.50;5023381;28;20038;-88
2021/12/22 02:13:43;;;;;;;21.40;15.52;;;;;;;15.35;37.91;93926.13;5027089;28;20121;-93
2021/12/22 02:16:12;;;;;;;23.73;15.27;;;;;;;15.39;37.73;93918.47;5025282;28;20045;-88
2021/12/22 02:18:41;;;;;;;18.75;13.32;;;;;;;15.42;37.74;93915.53;5030407;28;20052;-91
2021/12/22 02:21:06;;;;;;;22.02;14.18;;;;;;;15.39;38.13;93916.47;5014190;28;20042;-88
2021/12/22 02:23:32;;;;;;;20.73;13.80;;;;;;;15.37;37.80;93921.66;5030822;28;20033;-93
2021/12/22 02:26:04;;;;;;;22.42;14.10;;;;;;;15.38;37.88;93923.16;5014741;28;20508;-89
2021/12/22 02:28:34;;;;;;;22.02;13.60;;;;;;;15.38;38.48;93928.59;5030707;28;20041;-88
2021/12/22 02:30:59;;;;;;;21.85;13.98;;;;;;;15.36;37.93;93931.09;5031986;28;20060;-88
2021/12/22 02:33:33;;;;;;;17.13;13.13;;;;;;;15.37;37.84;93934.56;5031842;28;20384;-91
2021/12/22 02:38:31;;;;;;;20.20;13.10;;;;;;;15.36;37.78;93930.34;5030779;28;20044;-90
2021/12/22 02:40:56;;;;;;;17.42;12.30;;;;;;;15.38;37.84;93925.88;5030368;28;20762;-89
2021/12/22 02:43:24;;;;;;;21.90;13.55;;;;;;;15.43;37.63;93941.53;5030200;28;20053;-92
2021/12/22 02:45:52;;;;;;;19.77;13.15;;;;;;;15.45;37.51;93932.91;5014615;28;20144;-91
2021/12/22 02:48:18;;;;;;;18.98;12.85;;;;;;;15.37;37.75;93924.38;5029937;28;20037;-88
2021/12/22 02:50:43;;;;;;;19.00;12.52;;;;;;;15.42;37.58;93929.16;5030394;28;20061;-88
2021/12/22 02:53:14;;;;;;;16.77;11.60;;;;;;;15.38;37.58;93922.41;5029053;28;20441;-89
2021/12/22 02:55:47;;;;;;;17.08;12.27;;;;;;;15.40;37.83;93920.72;5032099;28;20107;-89
2021/12/22 02:58:19;;;;;;;15.13;11.77;;;;;;;15.44;37.70;93928.69;5029937;28;20061;-88
2021/12/22 03:00:59;;;;;;;16.23;11.27;;;;;;;15.37;38.18;93924.38;5029927;28;20399;-94
2021/12/22 03:03:44;;;;;;;17.10;12.25;;;;;;;15.36;37.78;93930.34;5024468;28;20030;-91
2021/12/22 03:06:13;;;;;;;18.15;12.80;;;;;;;15.44;37.88;93923.22;5018148;28;20069;-87
2021/12/22 03:08:38;;;;;;;19.98;11.80;;;;;;;15.39;37.94;93929.34;5030361;28;20038;-89
2021/12/22 03:11:04;;;;;;;16.25;10.63;;;;;;;15.38;37.37;93914.97;5030003;28;20045;-89
2021/12/22 03:13:32;;;;;;;15.40;11.55;;;;;;;15.40;37.69;93928.13;5030536;28;20033;-88
2021/12/22 03:15:57;;;;;;;16.48;11.70;;;;;;;15.36;37.77;93931.09;5029900;28;20033;-93
2021/12/22 03:18:23;;;;;;;16.30;11.27;;;;;;;15.42;37.59;93920.97;5030001;28;20561;-88
2021/12/22 03:20:56;;;;;;;17.08;12.10;;;;;;;15.38;37.74;93914.97;5030281;28;20046;-91
2021/12/22 03:23:22;;;;;;;18.73;12.20;;;;;;;15.39;37.69;93924.66;5028787;28;20041;-90
2021/12/22 03:25:47;;;;;;;14.13;10.50;;;;;;;15.37;37.68;93915.50;5030149;28;20045;-89
2021/12/22 03:28:13;;;;;;;16.30;9.50;;;;;;;15.38;37.71;93912.25;5030591;28;20396;-89
2021/12/22 03:30:39;;;;;;;14.43;10.27;;;;;;;15.33;37.92;93921.13;5030879;28;20041;-89
2021/12/22 03:33:04;;;;;;;14.10;9.75;;;;;;;15.32;37.76;93930.53;5030903;28;20091;-88
2021/12/22 03:35:34;;;;;;;16.08;10.93;;;;;;;15.33;37.64;93931.28;5026604;28;20056;-91
2021/12/22 03:37:59;;;;;;;15.75;10.98;;;;;;;15.30;37.90;93924.81;5010216;28;20125;-91
2021/12/22 03:40:25;;;;;;;14.80;9.35;;;;;;;15.31;38.15;93920.88;5009377;28;20045;-94
2021/12/22 03:42:50;;;;;;;13.45;9.13;;;;;;;15.32;37.76;93927.06;5021748;28;20034;-91
2021/12/22 03:45:16;;;;;;;14.25;10.05;;;;;;;15.34;37.82;93927.34;5028733;28;20049;-91
2021/12/22 03:47:41;;;;;;;14.90;10.18;;;;;;;15.32;37.97;93927.81;5029751;28;20108;-94
2021/12/22 03:50:08;;;;;;;14.32;9.50;;;;;;;15.35;37.78;93929.59;5029382;28;20447;-91
2021/12/22 03:52:33;;;;;;;13.80;10.30;;;;;;;15.28;37.78;93930.00;5029350;28;20360;-90
2021/12/22 03:54:59;;;;;;;13.85;9.90;;;;;;;15.30;37.75;93938.44;5020191;28;20045;-93
2021/12/22 03:57:27;;;;;;;13.73;9.82;;;;;;;15.33;37.74;93939.47;5012538;28;20038;-88
2021/12/22 03:59:53;;;;;;;14.02;9.98;;;;;;;15.29;37.87;93928.75;5029783;28;20500;-90
2021/12/22 04:02:20;;;;;;;15.32;9.85;;;;;;;15.36;37.82;93931.09;5025334;28;20104;-92
2021/12/22 04:04:48;;;;;;;14.77;10.07;;;;;;;15.34;37.74;93932.78;5009855;28;20038;-94
2021/12/22 04:07:14;;;;;;;13.38;9.40;;;;;;;15.28;37.77;93937.41;5021997;28;20041;-90
2021/12/22 04:09:39;;;;;;;12.73;9.23;;;;;;;15.29;37.94;93942.38;5029565;28;20090;-88
2021/12/22 04:12:05;;;;;;;12.10;9.77;;;;;;;15.31;37.84;93939.19;5028668;28;20034;-91
2021/12/22 04:14:30;;;;;;;13.50;9.25;;;;;;;15.34;37.68;93938.22;5012164;28;20128;-89
2021/12/22 04:16:55;;;;;;;13.70;9.63;;;;;;;15.31;37.82;93941.91;5029576;28;20103;-89
2021/12/22 04:19:21;;;;;;;13.05;9.65;;;;;;;15.38;37.65;93933.31;5011668;28;20404;-89
2021/12/22 04:21:48;;;;;;;14.45;8.38;;;;;;;15.32;37.86;93946.13;5045849;28;20041;-89
2021/12/22 04:24:14;;;;;;;11.02;7.35;;;;;;;15.29;37.97;93947.84;5044370;28;20136;-89
2021/12/22 04:26:39;;;;;;;11.27;8.63;;;;;;;15.36;37.42;93935.78;5045924;28;20040;-88
2021/12/22 04:29:05;;;;;;;12.10;8.32;;;;;;;15.32;37.98;93944.16;5028383;28;20416;-89
2021/12/22 04:31:30;;;;;;;12.75;9.50;;;;;;;15.31;37.87;93941.91;5017507;28;20045;-89
2021/12/22 04:33:56;;;;;;;11.15;9.15;;;;;;;15.28;38.02;93942.84;5045713;28;20030;-89
2021/12/22 04:36:21;;;;;;;15.38;8.50;;;;;;;15.27;37.95;93944.09;4979222;28;20037;-93
2021/12/22 04:38:47;;;;;;;9.32;7.68;;;;;;;15.32;37.83;93944.16;5028969;28;20041;-88
2021/12/22 04:41:12;;;;;;;11.25;8.85;;;;;;;15.32;38.37;93946.13;5028352;28;20492;-89
2021/12/22 04:43:38;;;;;;;12.02;8.50;;;;;;;15.32;37.96;93930.53;5025046;28;20396;-90
2021/12/22 04:46:03;;;;;;;11.32;8.50;;;;;;;15.31;37.78;93941.91;5008786;28;20045;-92
2021/12/22 04:48:31;;;;;;;12.27;8.43;;;;;;;15.36;38.08;93941.22;5010924;28;20042;-88
2021/12/22 04:50:56;;;;;;;13.13;9.80;;;;;;;15.46;37.81;93936.38;5043090;28;20370;-87
2021/12/22 04:53:25;;;;;;;12.20;7.95;;;;;;;15.46;37.09;93937.13;5029947;28;20484;-87
2021/12/22 04:55:51;;;;;;;13.27;8.15;;;;;;;15.42;37.62;93929.16;5047196;28;20037;-86
2021/12/22 04:58:16;;;;;;;12.23;7.43;;;;;;;15.40;37.50;93939.03;5033707;28;20087;-87
2021/12/22 05:00:42;;;;;;;11.23;8.00;;;;;;;15.41;37.73;93945.97;5030196;28;20400;-91
2021/12/22 05:03:10;;;;;;;10.40;7.25;;;;;;;15.34;37.98;93947.16;5025359;28;20034;-89
2021/12/22 05:05:36;;;;;;;10.15;7.97;;;;;;;15.31;37.82;93948.09;5008674;28;20110;-87
2021/12/22 05:08:01;;;;;;;11.32;8.18;;;;;;;15.38;37.74;93952.38;5040944;28;20050;-88
2021/12/22 05:10:27;;;;;;;9.77;7.32;;;;;;;15.40;37.69;93947.19;5028418;28;20045;-89
2021/12/22 05:12:52;;;;;;;9.00;6.85;;;;;;;15.33;37.48;93940.22;5029078;28;20377;-92
2021/12/22 05:15:20;;;;;;;9.55;7.15;;;;;;;15.31;37.68;93945.38;5028345;28;20392;-89
2021/12/22 05:20:13;;;;;;;10.70;7.28;;;;;;;15.30;37.65;93952.06;5029939;28;20033;-88
2021/12/22 05:22:39;;;;;;;10.60;7.68;;;;;;;15.37;37.84;93948.91;5029935;28;20148;-93
2021/12/22 05:25:05;;;;;;;8.95;7.63;;;;;;;15.37;37.79;93957.06;5028227;28;20503;-88
2021/12/22 05:27:30;;;;;;;11.32;7.10;;;;;;;15.43;37.48;93963.34;5024557;28;20042;-88
2021/12/22 05:29:57;;;;;;;9.73;7.07;;;;;;;15.33;37.72;93953.06;5033285;28;20119;-88
2021/12/22 05:32:26;;;;;;;19.45;12.60;;;;;;;15.51;37.51;93955.50;5029122;28;20456;-87
2021/12/22 05:34:52;;;;;;;86.95;52.75;;;;;;;15.59;36.41;93956.59;5032542;28;20037;-91
2021/12/22 05:37:18;;;;;;;38.15;25.75;;;;;;;15.62;37.61;93958.38;5050017;28;20064;-94
2021/12/22 05:39:43;;;;;;;21.42;12.82;;;;;;;15.68;37.65;93944.81;5023083;28;20072;-89
2021/12/22 05:42:09;;;;;;;21.13;13.65;;;;;;;15.77;37.46;93950.88;5035497;28;20258;-90
2021/12/22 05:44:34;;;;;;;17.80;12.50;;;;;;;15.81;37.62;93952.63;5017118;28;20056;-90
2021/12/22 05:47:00;;;;;;;17.25;12.32;;;;;;;15.68;37.03;93958.44;5037296;28;20117;-91
2021/12/22 05:49:25;;;;;;;21.27;12.57;;;;;;;15.65;36.93;93962.88;5045310;28;20470;-94
2021/12/22 05:51:51;;;;;;;22.83;15.50;;;;;;;15.57;37.10;93959.09;5024311;28;20068;-87
2021/12/22 05:54:16;;;;;;;21.17;12.25;;;;;;;15.60;36.80;93960.09;5082103;22;20048;-89
2021/12/22 05:56:43;;;;;;;31.95;19.00;;;;;;;15.56;36.78;93954.88;5080818;28;20417;-90
2021/12/22 05:59:08;;;;;;;49.38;26.38;;;;;;;15.58;37.04;93957.13;5047731;23;20103;-93
2021/12/22 06:01:34;;;;;;;127.32;57.58;;;;;;;15.43;33.20;93963.34;5007900;28;20046;-93
2021/12/22 06:04:03;;;;;;;131.73;55.15;;;;;;;15.40;32.70;93963.53;5034998;28;20037;-90
2021/12/22 06:06:29;;;;;;;109.32;43.10;;;;;;;15.32;31.38;93948.84;5023137;28;20041;-90
2021/12/22 06:08:55;;;;;;;96.63;36.30;;;;;;;15.32;31.50;93959.75;5009114;28;20088;-94
2021/12/22 06:11:51;;;;;;;123.32;44.28;;;;;;;15.36;32.44;93957.56;5014395;28;20041;-91
2021/12/22 06:14:17;;;;;;;112.90;42.42;;;;;;;15.30;33.14;93957.50;4996598;28;20060;-90
2021/12/22 06:16:45;;;;;;;132.60;48.00;;;;;;;15.27;33.74;93954.97;5010424;28;20041;-89
2021/12/22 06:19:12;;;;;;;129.30;46.28;;;;;;;15.34;34.75;93970.91;5007355;28;20038;-91
2021/12/22 06:21:38;;;;;;;105.65;44.80;;;;;;;15.39;34.63;93962.78;5003251;28;20073;-94
2021/12/22 06:24:04;;;;;;;114.63;46.10;;;;;;;15.33;35.25;93970.16;5050862;22;20037;-89
2021/12/22 06:26:32;;;;;;;130.60;48.95;;;;;;;15.38;35.40;93966.75;5023074;28;20052;-90
2021/12/22 06:28:57;;;;;;;121.03;49.15;;;;;;;15.37;35.58;93959.78;5017462;28;20041;-90
2021/12/22 06:31:22;;;;;;;115.63;50.55;;;;;;;15.41;35.69;93970.50;5054158;28;20033;-93
2021/12/22 06:34:07;;;;;;;131.40;54.28;;;;;;;15.40;35.90;93969.00;5022478;28;20584;-96
2021/12/22 06:36:35;;;;;;;120.78;51.83;;;;;;;15.41;36.16;93968.53;5043059;28;20107;-91
2021/12/22 06:39:02;;;;;;;113.70;44.47;;;;;;;15.43;35.74;93968.78;4999103;28;20154;-96
2021/12/22 06:41:30;;;;;;;125.88;46.28;;;;;;;15.36;34.99;93966.50;5030443;28;20037;-88
2021/12/22 06:43:59;;;;;;;122.88;42.53;;;;;;;15.31;33.52;93969.16;5067274;28;20036;-91
2021/12/22 06:46:24;;;;;;;76.45;31.27;;;;;;;15.24;31.67;93962.13;4987701;28;20045;-90
2021/12/22 06:48:50;;;;;;;117.30;38.33;;;;;;;15.20;32.03;93950.69;5016656;28;20048;-89
2021/12/22 06:51:16;;;;;;;98.22;37.80;;;;;;;15.24;32.33;93947.75;5032357;28;20045;-92
2021/12/22 06:53:41;;;;;;;127.25;44.92;;;;;;;15.28;33.13;93953.75;5068706;28;20048;-87
2021/12/22 06:56:07;;;;;;;97.78;40.97;;;;;;;15.30;34.13;93954.78;5052289;28;20036;-92
2021/12/22 06:58:32;;;;;;;144.23;69.93;;;;;;;15.34;34.45;93965.47;5049194;28;20056;-88
2021/12/22 07:00:59;;;;;;;136.13;50.55;;;;;;;15.35;34.21;93973.16;5001082;28;20048;-87
2021/12/22 07:03:24;;;;;;;105.07;48.90;;;;;;;15.37;34.70;93978.88;5032348;28;20052;-88
2021/12/22 07:05:50;;;;;;;87.85;37.53;;;;;;;15.44;34.97;93975.75;5005295;28;20116;-89
2021/12/22 07:08:18;;;;;;;128.27;50.90;;;;;;;15.41;35.21;93975.94;5028147;28;20096;-89
2021/12/22 07:10:44;;;;;;;125.68;58.40;;;;;;;15.38;34.15;93985.06;5065747;28;20041;-88
2021/12/22 07:13:10;;;;;;;95.38;44.63;;;;;;;15.56;33.56;93986.81;5038987;28;20067;-86
2021/12/22 07:15:35;;;;;;;100.95;50.80;;;;;;;15.46;34.15;93993.59;5044955;28;20036;-87
2021/12/22 07:18:08;;;;;;;95.82;40.03;;;;;;;15.57;34.00;93999.97;5039213;28;20029;-91
2021/12/22 07:20:35;;;;;;;90.15;40.25;;;;;;;15.66;34.32;94002.53;5035351;23;20057;-88
2021/12/22 07:23:00;;;;;;;70.38;34.00;;;;;;;15.47;33.87;94008.72;5017072;28;20041;-88
2021/12/22 07:25:26;;;;;;;72.13;34.63;;;;;;;15.38;34.17;94001.41;5020974;28;20656;-88
2021/12/22 07:27:51;;;;;;;77.18;36.67;;;;;;;15.35;33.92;94008.59;5035760;28;20123;-91
2021/12/22 07:30:18;;;;;;;81.00;37.70;;;;;;;15.46;33.93;94010.69;5015731;28;20757;-89
2021/12/22 07:32:43;;;;;;;75.78;38.33;;;;;;;15.43;34.10;94004.22;5045846;28;20040;-89
2021/12/22 07:35:25;;;;;;;82.45;40.15;;;;;;;15.38;34.22;94004.88;5015495;28;20459;-90
2021/12/22 07:38:00;;;;;;;76.70;37.00;;;;;;;15.40;34.36;93999.72;5031321;28;20033;-90
2021/12/22 07:40:26;;;;;;;86.95;41.00;;;;;;;15.38;34.56;94006.84;5028567;28;20513;-90
2021/12/22 07:42:51;;;;;;;80.10;36.10;;;;;;;15.36;34.66;94007.34;5028946;28;20047;-91
2021/12/22 07:45:18;;;;;;;89.43;40.88;;;;;;;15.44;34.16;94004.97;5039032;28;20407;-90
2021/12/22 07:47:43;;;;;;;69.05;37.03;;;;;;;15.43;34.37;94006.19;5018016;28;20041;-91
2021/12/22 07:50:11;;;;;;;88.88;42.72;;;;;;;15.44;34.33;93999.50;5038504;28;20041;-90
2021/12/22 07:52:36;;;;;;;78.55;39.83;;;;;;;15.44;34.51;94013.13;5047828;28;20033;-90
2021/12/22 07:55:02;;;;;;;82.38;39.78;;;;;;;15.49;34.47;94011.72;5022942;28;20036;-91
2021/12/22 07:57:28;;;;;;;80.95;40.05;;;;;;;15.42;34.62;94015.59;5052409;28;20037;-90
2021/12/22 07:59:53;;;;;;;94.13;41.60;;;;;;;15.43;33.96;94020.56;5053966;28;20407;-89
2021/12/22 08:02:19;;;;;;;102.38;36.38;;;;;;;15.42;31.96;94019.06;5046900;28;20384;-94
2021/12/22 08:04:44;;;;;;;105.28;39.55;;;;;;;15.32;31.82;94016.94;5053335;28;20415;-89
2021/12/22 08:07:09;;;;;;;161.35;56.53;;;;;;;15.32;32.62;94025.88;5018050;28;20377;-92
2021/12/22 08:09:35;;;;;;;130.32;52.10;;;;;;;15.36;32.77;94018.25;5015006;28;20088;-90
2021/12/22 08:12:04;;;;;;;151.35;55.65;;;;;;;15.41;33.22;94022.25;5031133;28;20124;-91
2021/12/22 08:14:34;;;;;;;153.95;64.57;;;;;;;15.41;34.02;94031.19;5018179;28;20052;-89
2021/12/22 08:16:59;;;;;;;146.80;68.15;;;;;;;15.47;34.13;94025.81;5031563;28;20045;-90
2021/12/22 08:19:25;;;;;;;178.68;84.70;;;;;;;15.55;34.02;94031.59;5047814;28;20594;-90
2021/12/22 08:21:50;;;;;;;214.88;105.53;;;;;;;15.45;34.13;94030.97;5017541;28;20076;-90
2021/12/22 08:24:17;;;;;;;201.52;97.13;;;;;;;15.51;33.93;94022.88;5029512;28;20037;-91
2021/12/22 08:26:49;;;;;;;218.70;109.25;;;;;;;15.56;33.81;94030.41;5036114;28;20037;-91
2021/12/22 08:29:14;;;;;;;240.07;122.30;;;;;;;15.61;34.28;94029.72;5006552;28;20271;-91
2021/12/22 08:31:40;;;;;;;245.20;117.43;;;;;;;15.55;34.19;94031.59;5040134;28;20037;-95
2021/12/22 08:34:08;;;;;;;260.42;127.93;;;;;;;15.56;34.31;94033.88;5034031;28;20044;-90
2021/12/22 08:39:18;;;;;;;256.02;129.07;;;;;;;15.57;34.47;94037.34;5051974;28;20052;-91
2021/12/22 08:41:47;;;;;;;220.23;115.93;;;;;;;15.61;34.10;94032.44;5033944;28;20041;-90
2021/12/22 08:44:14;;;;;;;231.38;115.53;;;;;;;15.61;34.14;94024.25;5037769;28;20029;-93
2021/12/22 08:46:42;;;;;;;228.82;113.38;;;;;;;15.64;34.46;94029.50;5041189;28;20061;-90
2021/12/22 08:49:07;;;;;;;213.23;113.78;;;;;;;15.62;34.38;94026.50;5027092;28;20060;-90
2021/12/22 08:51:33;;;;;;;196.50;102.47;;;;;;;15.59;34.62;94030.19;5055460;23;20525;-90
2021/12/22 08:54:00;;;;;;;213.75;108.47;;;;;;;15.59;34.53;94035.63;5059238;28;20044;-92
2021/12/22 08:56:26;;;;;;;195.13;102.00;;;;;;;15.54;34.83;94030.84;5079905;22;20051;-91
2021/12/22 08:58:51;;;;;;;205.32;104.10;;;;;;;15.63;34.35;94033.47;5001148;28;20041;-90
2021/12/22 09:01:17;;;;;;;185.00;96.28;;;;;;;15.58;34.50;94031.44;5032938;28;20047;-91
2021/12/22 09:03:42;;;;;;;162.40;87.53;;;;;;;15.67;34.71;94039.47;5010583;28;21036;-89
2021/12/22 09:06:07;;;;;;;173.48;85.93;;;;;;;15.67;34.46;94034.00;5014656;28;20668;-89
2021/12/22 09:08:34;;;;;;;178.63;91.25;;;;;;;15.67;34.11;94033.25;4998237;28;20423;-90
2021/12/22 09:10:59;;;;;;;290.85;98.28;;;;;;;15.74;34.37;94030.88;5002987;28;20045;-89
2021/12/22 09:13:36;;;;;;;191.43;91.88;;;;;;;15.70;34.58;94030.31;5008431;28;20052;-95
2021/12/22 09:16:13;;;;;;;170.50;89.15;;;;;;;15.75;34.63;94028.91;5016508;28;20535;-90
2021/12/22 09:18:39;;;;;;;165.68;87.43;;;;;;;15.74;34.57;94032.84;5023027;28;20044;-92
2021/12/22 09:21:05;;;;;;;166.95;84.18;;;;;;;15.72;34.10;94035.31;5025164;28;20048;-93
2021/12/22 09:23:31;;;;;;;201.88;89.53;;;;;;;15.74;34.62;94019.97;5047262;28;20061;-94
2021/12/22 09:25:57;;;;;;;182.35;88.03;;;;;;;15.71;34.45;94025.63;5019686;28;20586;-91
2021/12/22 09:28:23;;;;;;;171.15;87.30;;;;;;;15.72;34.60;94022.44;5025178;28;20082;-92
2021/12/22 09:30:48;;;;;;;188.57;95.35;;;;;;;15.77;34.42;94019.03;5009919;28;20041;-92
2021/12/22 09:33:16;;;;;;;172.38;91.40;;;;;;;15.71;34.68;94023.66;5023221;28;20049;-92
2021/12/22 09:35:44;;;;;;;192.38;95.13;;;;;;;15.75;34.44;94023.44;5010513;28;20041;-93
2021/12/22 09:38:09;;;;;;;188.27;97.35;;;;;;;15.71;34.64;94029.09;5005439;28;20057;-91
2021/12/22 09:40:35;;;;;;;243.50;114.07;;;;;;;15.72;34.67;94029.84;5029837;28;20047;-90
2021/12/22 09:43:03;;;;;;;247.10;129.88;;;;;;;15.79;34.72;94028.69;5010033;28;20118;-90
2021/12/22 09:45:28;;;;;;;259.10;130.35;;;;;;;15.75;34.75;94028.91;4994142;28;20072;-89
2021/12/22 09:48:20;;;;;;;259.88;131.05;;;;;;;15.73;34.77;94025.91;5028432;28;20033;-91
2021/12/22 09:52:16;;;;;;;255.43;132.65;;;;;;;15.80;34.65;94022.78;4996251;28;20134;-94
2021/12/22 09:53:49;;;;;;;259.83;129.88;;;;;;;15.77;34.89;94021.75;4987619;28;20129;-94
2021/12/22 09:56:17;;;;;;;255.18;128.48;;;;;;;15.82;34.63;94019.53;4961209;28;20108;-91
2021/12/22 09:59:04;;;;;;;237.00;120.30;;;;;;;15.77;34.80;94016.28;4965591;28;20051;-92
2021/12/22 10:01:30;;;;;;;227.60;114.05;;;;;;;15.84;34.37;94028.00;5006400;23;20113;-86
2021/12/22 10:03:58;;;;;;;245.57;125.15;;;;;;;15.84;34.41;94023.28;5033361;28;20033;-93
2021/12/22 10:06:25;;;;;;;225.13;110.00;;;;;;;15.75;34.38;94010.56;4999310;28;20262;-91
2021/12/22 10:08:59;;;;;;;218.50;112.53;;;;;;;15.82;34.23;93998.47;4998162;28;20042;-91
2021/12/22 10:11:25;;;;;;;234.88;114.18;;;;;;;15.88;34.48;94001.28;5011997;28;20052;-91
2021/12/22 10:13:50;;;;;;;224.15;113.13;;;;;;;15.86;34.39;94015.38;5010090;28;20278;-92
2021/12/22 10:16:21;;;;;;;181.95;81.70;;;;;;;15.72;31.98;94005.31;5024741;28;20156;-89
2021/12/22 10:18:47;;;;;;;162.30;76.75;;;;;;;15.68;32.03;94010.97;5001678;28;20047;-91
2021/12/22 10:21:18;;;;;;;196.15;86.25;;;;;;;15.76;32.60;94014.03;5010037;28;20042;-91
2021/12/22 10:23:48;;;;;;;155.73;80.75;;;;;;;15.70;32.20;94008.53;5015403;28;20067;-89
2021/12/22 10:26:17;;;;;;;176.98;85.65;;;;;;;15.79;32.88;94006.91;5028910;28;20049;-91
2021/12/22 10:28:51;;;;;;;172.32;89.45;;;;;;;15.75;33.30;94009.81;4996454;28;20594;-93
2021/12/22 10:31:18;;;;;;;187.05;92.80;;;;;;;15.72;33.77;94008.06;5029185;28;20060;-92
2021/12/22 10:33:44;;;;;;;199.73;93.22;;;;;;;15.82;33.68;94003.94;5005459;28;20052;-91
2021/12/22 10:36:17;;;;;;;174.30;93.75;;;;;;;15.81;34.06;93988.81;5052298;28;20038;-93
2021/12/22 10:38:52;;;;;;;188.48;88.57;;;;;;;15.83;33.70;94002.72;5020739;28;20038;-89
2021/12/22 10:41:18;;;;;;;195.70;64.72;;;;;;;15.66;31.88;93996.31;5046727;28;20128;-88
2021/12/22 10:43:52;;;;;;;168.70;62.45;;;;;;;15.61;31.97;93984.13;5048943;28;20041;-88
2021/12/22 10:46:31;;;;;;;164.23;67.00;;;;;;;15.66;32.04;93986.19;5032370;28;20049;-89
2021/12/22 10:49:17;;;;;;;165.02;67.85;;;;;;;15.81;31.83;93982.59;5012638;28;20084;-87
2021/12/22 10:52:00;;;;;;;172.43;76.50;;;;;;;15.82;32.25;93981.38;5029612;28;20037;-85
2021/12/22 10:54:37;;;;;;;176.27;83.75;;;;;;;15.75;32.65;93982.56;5015542;28;20479;-87
2021/12/22 10:57:08;;;;;;;165.35;82.57;;;;;;;15.71;33.50;93974.59;4997874;28;20068;-87
2021/12/22 10:59:40;;;;;;;;;;;;;;;15.75;33.84;93977.88;5024068;28;20038;-87
2021/12/22 11:02:06;;;;;;;129.80;68.10;;;;;;;15.69;33.83;93981.75;5054146;28;19928;-88
2021/12/22 11:04:33;;;;;;;160.80;80.20;;;;;;;15.71;33.83;93971.13;5047732;23;20065;-90
2021/12/22 11:07:07;;;;;;;146.65;77.43;;;;;;;15.74;34.08;93970.16;5018776;28;20041;-88
2021/12/22 11:09:36;;;;;;;128.07;72.43;;;;;;;15.76;34.16;93965.72;5011675;28;20041;-94
2021/12/22 11:12:01;;;;;;;154.25;78.07;;;;;;;15.85;33.97;93964.81;5031569;28;20107;-92
2021/12/22 11:14:33;;;;;;;123.78;61.58;;;;;;;15.87;34.56;93967.06;5007668;28;20033;-89
2021/12/22 11:17:19;;;;;;;120.38;67.53;;;;;;;15.85;33.80;93961.34;5020150;28;20492;-89
2021/12/22 11:20:02;;;;;;;132.00;69.53;;;;;;;15.92;33.97;93960.91;5044809;22;20849;-92
2021/12/22 11:22:47;;;;;;;133.60;69.30;;;;;;;15.98;34.18;93957.03;5086446;22;20052;-92
2021/12/22 11:25:12;;;;;;;113.78;62.70;;;;;;;15.99;34.10;93950.34;5055941;28;20094;-88
2021/12/22 11:27:38;;;;;;;112.22;60.90;;;;;;;15.95;33.78;93960.72;5073644;28;20028;-89
2021/12/22 11:30:04;;;;;;;105.13;61.88;;;;;;;15.97;34.00;93955.53;5035099;28;20101;-86